createdAt,value
2017-04-13T00:01:06.983Z,0
2017-04-13T00:02:15.063Z,0
2017-04-13T00:03:23.150Z,0
2017-04-13T00:04:31.241Z,0
2017-04-13T00:05:39.322Z,0
2017-04-13T00:06:47.410Z,0
2017-04-13T00:07:55.505Z,0
2017-04-13T00:09:03.593Z,0
2017-04-13T00:10:11.680Z,0
2017-04-13T00:11:19.767Z,0
2017-04-13T00:12:27.851Z,0
2017-04-13T00:13:35.941Z,0
2017-04-13T00:14:44.027Z,0
2017-04-13T00:15:52.120Z,0
2017-04-13T00:17:00.218Z,0
2017-04-13T00:18:08.299Z,0
2017-04-13T00:19:16.391Z,0
2017-04-13T00:20:24.477Z,0
2017-04-13T00:21:32.562Z,0
2017-04-13T00:22:40.658Z,0
2017-04-13T00:23:48.748Z,0
2017-04-13T00:24:56.838Z,0
2017-04-13T00:26:04.924Z,0
2017-04-13T00:27:13.016Z,0
2017-04-13T00:28:21.112Z,0
2017-04-13T00:29:29.195Z,0
2017-04-13T00:30:37.290Z,0
2017-04-13T00:31:45.376Z,0
2017-04-13T00:32:53.461Z,0
2017-04-13T00:34:01.551Z,0
2017-04-13T00:35:09.643Z,0
2017-04-13T00:36:17.730Z,0
2017-04-13T00:37:25.821Z,0
2017-04-13T00:38:33.905Z,0
2017-04-13T00:39:41.994Z,0
2017-04-13T00:40:50.084Z,0
2017-04-13T00:41:58.164Z,0
2017-04-13T00:43:06.260Z,0
2017-04-13T00:44:14.348Z,0
2017-04-13T00:45:22.430Z,0
2017-04-13T00:46:30.557Z,0
2017-04-13T00:47:38.610Z,0
2017-04-13T00:48:46.695Z,0
2017-04-13T00:49:54.777Z,0
2017-04-13T00:51:02.870Z,0
2017-04-13T00:52:10.957Z,0
2017-04-13T00:53:19.041Z,0
2017-04-13T00:54:27.131Z,0
2017-04-13T00:55:35.218Z,0
2017-04-13T00:56:43.305Z,0
2017-04-13T00:57:51.391Z,0
2017-04-13T00:58:59.479Z,0
2017-04-13T01:00:07.565Z,0
2017-04-13T01:01:15.652Z,0
2017-04-13T01:02:23.742Z,0
2017-04-13T01:03:31.829Z,0
2017-04-13T01:04:39.915Z,0
2017-04-13T01:05:48.009Z,0
2017-04-13T01:06:56.092Z,0
2017-04-13T01:08:04.177Z,0
2017-04-13T01:09:12.267Z,0
2017-04-13T01:10:20.354Z,0
2017-04-13T01:11:28.447Z,0
2017-04-13T01:12:36.543Z,0
2017-04-13T01:13:44.628Z,0
2017-04-13T01:14:52.725Z,0
2017-04-13T01:16:00.819Z,0
2017-04-13T01:17:08.902Z,0
2017-04-13T01:18:16.992Z,0
2017-04-13T01:19:25.087Z,0
2017-04-13T01:20:33.166Z,0
2017-04-13T01:21:41.255Z,0
2017-04-13T01:22:49.347Z,0
2017-04-13T01:23:57.431Z,0
2017-04-13T01:25:05.513Z,0
2017-04-13T01:26:13.624Z,0
2017-04-13T01:27:21.709Z,0
2017-04-13T01:28:29.796Z,0
2017-04-13T01:29:37.883Z,0
2017-04-13T01:30:45.974Z,0
2017-04-13T01:31:54.059Z,0
2017-04-13T01:33:02.149Z,0
2017-04-13T01:34:10.239Z,0
2017-04-13T01:35:18.330Z,0
2017-04-13T01:36:26.417Z,0
2017-04-13T01:37:34.505Z,0
2017-04-13T01:38:42.593Z,0
2017-04-13T01:39:50.684Z,0
2017-04-13T01:40:58.768Z,0
2017-04-13T01:42:06.859Z,0
2017-04-13T01:43:14.944Z,0
2017-04-13T01:44:23.029Z,0
2017-04-13T01:45:31.120Z,0
2017-04-13T01:46:39.208Z,0
2017-04-13T01:47:47.292Z,0
2017-04-13T01:48:55.378Z,0
2017-04-13T01:50:03.466Z,0
2017-04-13T01:51:11.565Z,0
2017-04-13T01:52:19.646Z,0
2017-04-13T01:53:27.736Z,0
2017-04-13T01:54:35.821Z,0
2017-04-13T01:55:43.980Z,0
2017-04-13T01:56:51.999Z,0
2017-04-13T01:58:00.093Z,0
2017-04-13T01:59:08.182Z,0
2017-04-13T02:00:16.266Z,0
2017-04-13T02:01:24.357Z,0
2017-04-13T02:02:32.447Z,0
2017-04-13T02:03:40.539Z,0
2017-04-13T02:04:48.625Z,0
2017-04-13T02:05:56.717Z,0
2017-04-13T02:07:04.796Z,0
2017-04-13T02:08:12.884Z,0
2017-04-13T02:09:20.976Z,0
2017-04-13T02:10:29.066Z,0
2017-04-13T02:11:37.158Z,0
2017-04-13T02:12:45.278Z,0
2017-04-13T02:13:53.328Z,0
2017-04-13T02:15:01.415Z,0
2017-04-13T02:16:09.501Z,0
2017-04-13T02:17:17.595Z,0
2017-04-13T02:18:25.691Z,0
2017-04-13T02:19:33.774Z,0
2017-04-13T02:20:41.866Z,0
2017-04-13T02:21:49.952Z,0
2017-04-13T02:22:58.037Z,0
2017-04-13T02:24:06.121Z,0
2017-04-13T02:25:14.208Z,0
2017-04-13T02:26:22.298Z,0
2017-04-13T02:27:30.385Z,0
2017-04-13T02:28:38.470Z,0
2017-04-13T02:29:46.633Z,0
2017-04-13T02:30:54.645Z,0
2017-04-13T02:32:02.729Z,0
2017-04-13T02:33:10.818Z,0
2017-04-13T02:34:18.932Z,0
2017-04-13T02:35:26.990Z,0
2017-04-13T02:36:35.078Z,0
2017-04-13T02:37:43.175Z,0
2017-04-13T02:38:51.261Z,0
2017-04-13T02:39:59.347Z,0
2017-04-13T02:41:07.438Z,0
2017-04-13T02:42:15.525Z,0
2017-04-13T02:43:23.608Z,0
2017-04-13T02:44:31.698Z,0
2017-04-13T02:45:39.787Z,0
2017-04-13T02:46:47.870Z,0
2017-04-13T02:47:55.953Z,0
2017-04-13T02:49:04.049Z,0
2017-04-13T02:50:12.137Z,0
2017-04-13T02:51:20.226Z,0
2017-04-13T02:52:28.313Z,0
2017-04-13T02:53:36.400Z,0
2017-04-13T02:54:44.487Z,0
2017-04-13T02:55:52.570Z,0
2017-04-13T02:57:00.665Z,0
2017-04-13T02:58:08.760Z,0
2017-04-13T02:59:16.838Z,0
2017-04-13T03:00:24.929Z,0
2017-04-13T03:01:33.014Z,0
2017-04-13T03:02:41.099Z,0
2017-04-13T03:03:49.183Z,0
2017-04-13T03:04:57.272Z,0
2017-04-13T03:06:05.361Z,0
2017-04-13T03:07:13.446Z,0
2017-04-13T03:08:21.535Z,0
2017-04-13T03:09:29.622Z,0
2017-04-13T03:10:37.705Z,0
2017-04-13T03:11:45.793Z,0
2017-04-13T03:12:53.887Z,0
2017-04-13T03:14:01.977Z,0
2017-04-13T03:15:10.063Z,0
2017-04-13T03:16:18.150Z,0
2017-04-13T03:17:26.236Z,0
2017-04-13T03:18:34.321Z,0
2017-04-13T03:19:42.407Z,0
2017-04-13T03:20:50.505Z,0
2017-04-13T03:21:58.597Z,0
2017-04-13T03:23:06.678Z,0
2017-04-13T03:24:14.769Z,0
2017-04-13T03:25:22.852Z,0
2017-04-13T03:26:30.942Z,0
2017-04-13T03:27:39.033Z,0
2017-04-13T03:28:47.124Z,0
2017-04-13T03:29:55.216Z,0
2017-04-13T03:31:03.332Z,0
2017-04-13T03:32:11.382Z,0
2017-04-13T03:33:19.468Z,0
2017-04-13T03:34:27.552Z,0
2017-04-13T03:35:35.640Z,0
2017-04-13T03:36:43.732Z,0
2017-04-13T03:37:51.828Z,0
2017-04-13T03:38:59.956Z,0
2017-04-13T03:40:08.013Z,0
2017-04-13T03:41:16.092Z,0
2017-04-13T03:42:24.175Z,0
2017-04-13T03:43:32.260Z,0
2017-04-13T03:44:40.356Z,0
2017-04-13T03:45:48.449Z,0
2017-04-13T03:46:56.528Z,0
2017-04-13T03:48:04.614Z,0
2017-04-13T03:49:12.699Z,0
2017-04-13T03:50:20.787Z,0
2017-04-13T03:51:28.883Z,0
2017-04-13T03:52:36.965Z,0
2017-04-13T03:53:45.055Z,0
2017-04-13T03:54:53.141Z,0
2017-04-13T03:56:01.231Z,0
2017-04-13T03:57:09.322Z,0
2017-04-13T03:58:17.409Z,0
2017-04-13T03:59:25.497Z,0
2017-04-13T04:00:33.594Z,0
2017-04-13T04:01:41.679Z,0
2017-04-13T04:02:49.771Z,0
2017-04-13T04:03:57.859Z,0
2017-04-13T04:05:05.945Z,0
2017-04-13T04:06:14.028Z,0
2017-04-13T04:07:22.119Z,0
2017-04-13T04:08:30.201Z,0
2017-04-13T04:09:38.288Z,0
2017-04-13T04:10:46.381Z,0
2017-04-13T04:11:54.522Z,0
2017-04-13T04:13:02.556Z,0
2017-04-13T04:14:10.644Z,0
2017-04-13T04:15:18.732Z,0
2017-04-13T04:16:26.821Z,0
2017-04-13T04:17:34.946Z,0
2017-04-13T04:18:42.993Z,0
2017-04-13T04:19:51.084Z,0
2017-04-13T04:20:59.168Z,0
2017-04-13T04:22:07.252Z,0
2017-04-13T04:23:15.349Z,0
2017-04-13T04:24:23.434Z,0
2017-04-13T04:25:31.518Z,0
2017-04-13T04:26:39.601Z,0
2017-04-13T04:27:47.693Z,0
2017-04-13T04:28:55.775Z,0
2017-04-13T04:30:03.855Z,0
2017-04-13T04:31:11.948Z,0
2017-04-13T04:32:20.032Z,0
2017-04-13T04:33:28.113Z,0
2017-04-13T04:34:36.209Z,0
2017-04-13T04:35:44.290Z,0
2017-04-13T04:36:52.376Z,0
2017-04-13T04:38:00.472Z,0
2017-04-13T04:39:08.554Z,0
2017-04-13T04:40:16.640Z,0
2017-04-13T04:41:24.724Z,0
2017-04-13T04:42:32.812Z,0
2017-04-13T04:43:40.903Z,0
2017-04-13T04:44:48.990Z,4
2017-04-13T04:45:57.073Z,4
2017-04-13T04:47:05.164Z,0
2017-04-13T04:48:13.249Z,0
2017-04-13T04:49:21.334Z,0
2017-04-13T04:50:29.419Z,0
2017-04-13T04:51:37.505Z,0
2017-04-13T04:52:45.592Z,4
2017-04-13T04:53:53.672Z,0
2017-04-13T04:55:01.760Z,4
2017-04-13T04:56:09.851Z,0
2017-04-13T04:57:17.932Z,4
2017-04-13T04:58:26.103Z,4
2017-04-13T04:59:34.107Z,4
2017-04-13T05:00:42.192Z,4
2017-04-13T05:01:50.276Z,4
2017-04-13T05:02:58.370Z,4
2017-04-13T05:04:06.461Z,4
2017-04-13T05:05:14.551Z,4
2017-04-13T05:06:22.645Z,4
2017-04-13T05:07:30.734Z,4
2017-04-13T05:08:38.815Z,4
2017-04-13T05:09:46.901Z,4
2017-04-13T05:10:54.990Z,4
2017-04-13T05:12:03.074Z,4
2017-04-13T05:13:11.160Z,8
2017-04-13T05:14:19.260Z,8
2017-04-13T05:15:27.420Z,4
2017-04-13T05:16:35.436Z,4
2017-04-13T05:17:43.519Z,8
2017-04-13T05:18:51.616Z,8
2017-04-13T05:19:59.696Z,8
2017-04-13T05:21:07.782Z,8
2017-04-13T05:22:15.873Z,4
2017-04-13T05:23:24.004Z,8
2017-04-13T05:24:32.045Z,8
2017-04-13T05:25:40.127Z,8
2017-04-13T05:26:48.227Z,8
2017-04-13T05:27:56.310Z,8
2017-04-13T05:29:04.394Z,12
2017-04-13T05:30:12.483Z,12
2017-04-13T05:31:20.572Z,16
2017-04-13T05:32:28.660Z,12
2017-04-13T05:33:36.746Z,16
2017-04-13T05:34:44.854Z,16
2017-04-13T05:35:52.926Z,16
2017-04-13T05:37:01.024Z,16
2017-04-13T05:38:09.097Z,16
2017-04-13T05:39:17.453Z,16
2017-04-13T05:40:25.297Z,16
2017-04-13T05:41:33.352Z,20
2017-04-13T05:42:41.441Z,20
2017-04-13T05:43:49.528Z,16
2017-04-13T05:44:58.341Z,12
2017-04-13T05:46:05.899Z,12
2017-04-13T05:47:14.123Z,16
2017-04-13T05:48:22.457Z,16
2017-04-13T05:49:29.972Z,12
2017-04-13T05:50:38.059Z,12
2017-04-13T05:51:46.144Z,12
2017-04-13T05:52:54.226Z,12
2017-04-13T05:54:02.316Z,12
2017-04-13T05:55:11.029Z,12
2017-04-13T05:56:18.482Z,12
2017-04-13T05:57:26.872Z,12
2017-04-13T05:58:34.659Z,12
2017-04-13T05:59:42.743Z,12
2017-04-13T06:00:50.825Z,12
2017-04-13T06:01:58.919Z,16
2017-04-13T06:03:07.004Z,12
2017-04-13T06:04:15.094Z,12
2017-04-13T06:05:23.179Z,16
2017-04-13T06:06:31.266Z,12
2017-04-13T06:07:39.350Z,16
2017-04-13T06:08:47.440Z,16
2017-04-13T06:09:56.272Z,16
2017-04-13T06:11:03.619Z,16
2017-04-13T06:12:11.703Z,16
2017-04-13T06:13:19.793Z,16
2017-04-13T06:14:27.881Z,16
2017-04-13T06:15:35.973Z,16
2017-04-13T06:16:44.051Z,20
2017-04-13T06:17:52.139Z,16
2017-04-13T06:19:00.230Z,16
2017-04-13T06:20:08.309Z,16
2017-04-13T06:21:16.397Z,16
2017-04-13T06:22:24.484Z,16
2017-04-13T06:23:32.577Z,16
2017-04-13T06:24:40.663Z,16
2017-04-13T06:25:48.753Z,16
2017-04-13T06:26:56.832Z,16
2017-04-13T06:28:04.921Z,16
2017-04-13T06:29:13.005Z,20
2017-04-13T06:30:21.115Z,20
2017-04-13T06:31:29.175Z,20
2017-04-13T06:32:37.264Z,24
2017-04-13T06:33:45.358Z,36
2017-04-13T06:34:53.980Z,20
2017-04-13T06:36:01.535Z,20
2017-04-13T06:37:09.629Z,20
2017-04-13T06:38:17.715Z,24
2017-04-13T06:39:25.799Z,24
2017-04-13T06:40:33.880Z,20
2017-04-13T06:41:41.975Z,20
2017-04-13T06:42:50.058Z,20
2017-04-13T06:43:58.139Z,32
2017-04-13T06:45:06.227Z,28
2017-04-13T06:46:14.315Z,24
2017-04-13T06:47:22.398Z,20
2017-04-13T06:48:30.481Z,24
2017-04-13T06:49:38.571Z,28
2017-04-13T06:50:46.657Z,32
2017-04-13T06:51:54.743Z,32
2017-04-13T06:53:02.831Z,36
2017-04-13T06:54:10.920Z,28
2017-04-13T06:55:18.996Z,24
2017-04-13T06:56:27.081Z,32
2017-04-13T06:57:35.169Z,48
2017-04-13T06:58:43.280Z,60
2017-04-13T06:59:51.335Z,64
2017-04-13T07:00:59.425Z,64
2017-04-13T07:02:07.509Z,68
2017-04-13T07:03:15.599Z,52
2017-04-13T07:04:23.680Z,60
2017-04-13T07:05:31.771Z,28
2017-04-13T07:06:39.861Z,48
2017-04-13T07:07:47.953Z,44
2017-04-13T07:08:56.036Z,44
2017-04-13T07:10:04.133Z,48
2017-04-13T07:11:12.221Z,60
2017-04-13T07:12:20.306Z,48
2017-04-13T07:13:28.390Z,36
2017-04-13T07:14:36.513Z,64
2017-04-13T07:15:44.560Z,32
2017-04-13T07:16:52.649Z,80
2017-04-13T07:18:00.736Z,36
2017-04-13T07:19:08.819Z,32
2017-04-13T07:20:16.908Z,28
2017-04-13T07:21:25.000Z,32
2017-04-13T07:22:33.084Z,36
2017-04-13T07:23:41.165Z,28
2017-04-13T07:24:49.257Z,28
2017-04-13T07:25:57.344Z,28
2017-04-13T07:27:05.482Z,24
2017-04-13T07:28:13.523Z,20
2017-04-13T07:29:21.607Z,20
2017-04-13T07:30:29.703Z,20
2017-04-13T07:31:37.790Z,20
2017-04-13T07:32:45.881Z,24
2017-04-13T07:33:53.971Z,20
2017-04-13T07:35:02.052Z,20
2017-04-13T07:36:10.142Z,20
2017-04-13T07:37:18.244Z,20
2017-04-13T07:38:26.325Z,20
2017-04-13T07:39:34.408Z,24
2017-04-13T07:40:42.499Z,24
2017-04-13T07:41:50.583Z,24
2017-04-13T07:42:58.901Z,20
2017-04-13T07:44:07.329Z,20
2017-04-13T07:45:14.837Z,16
2017-04-13T07:46:22.918Z,16
2017-04-13T07:47:31.572Z,20
2017-04-13T07:48:39.093Z,20
2017-04-13T07:49:47.184Z,20
2017-04-13T07:50:55.702Z,16
2017-04-13T07:52:03.357Z,20
2017-04-13T07:53:11.445Z,20
2017-04-13T07:54:19.527Z,16
2017-04-13T07:55:27.615Z,20
2017-04-13T07:56:35.702Z,24
2017-04-13T07:57:43.791Z,20
2017-04-13T07:58:51.872Z,28
2017-04-13T07:59:59.965Z,28
2017-04-13T08:01:08.136Z,40
2017-04-13T08:02:16.133Z,64
2017-04-13T08:03:24.258Z,60
2017-04-13T08:04:32.301Z,60
2017-04-13T08:05:40.388Z,56
2017-04-13T08:06:48.476Z,56
2017-04-13T08:07:56.556Z,56
2017-04-13T08:09:04.661Z,52
2017-04-13T08:10:12.736Z,44
2017-04-13T08:11:20.824Z,56
2017-04-13T08:12:28.910Z,56
2017-04-13T08:13:36.993Z,56
2017-04-13T08:14:45.073Z,56
2017-04-13T08:15:53.279Z,56
2017-04-13T08:17:01.252Z,56
2017-04-13T08:18:09.335Z,56
2017-04-13T08:19:17.426Z,56
2017-04-13T08:20:25.530Z,56
2017-04-13T08:21:33.606Z,56
2017-04-13T08:22:41.688Z,56
2017-04-13T08:23:49.783Z,52
2017-04-13T08:24:57.880Z,56
2017-04-13T08:26:05.964Z,52
2017-04-13T08:27:14.048Z,56
2017-04-13T08:28:22.137Z,56
2017-04-13T08:29:30.233Z,52
2017-04-13T08:30:38.317Z,56
2017-04-13T08:31:46.411Z,52
2017-04-13T08:32:54.497Z,56
2017-04-13T08:34:02.581Z,56
2017-04-13T08:35:10.695Z,52
2017-04-13T08:36:18.755Z,52
2017-04-13T08:37:26.845Z,56
2017-04-13T08:38:35.270Z,60
2017-04-13T08:39:43.013Z,56
2017-04-13T08:40:51.099Z,56
2017-04-13T08:41:59.180Z,60
2017-04-13T08:43:07.270Z,60
2017-04-13T08:44:15.358Z,64
2017-04-13T08:45:23.441Z,64
2017-04-13T08:46:31.529Z,52
2017-04-13T08:47:40.026Z,32
2017-04-13T08:48:47.880Z,24
2017-04-13T08:49:55.903Z,24
2017-04-13T08:51:03.876Z,20
2017-04-13T08:52:11.965Z,24
2017-04-13T08:53:20.056Z,20
2017-04-13T08:54:28.138Z,20
2017-04-13T08:55:36.227Z,20
2017-04-13T08:56:44.309Z,24
2017-04-13T08:57:52.393Z,24
2017-04-13T08:59:00.483Z,28
2017-04-13T09:00:08.570Z,28
2017-04-13T09:01:16.657Z,24
2017-04-13T09:02:24.737Z,28
2017-04-13T09:03:32.823Z,36
2017-04-13T09:04:40.913Z,24
2017-04-13T09:05:48.994Z,24
2017-04-13T09:06:57.086Z,24
2017-04-13T09:08:05.173Z,24
2017-04-13T09:09:13.253Z,24
2017-04-13T09:10:21.342Z,28
2017-04-13T09:11:29.429Z,28
2017-04-13T09:12:37.517Z,24
2017-04-13T09:13:45.605Z,24
2017-04-13T09:14:53.689Z,24
2017-04-13T09:16:01.772Z,28
2017-04-13T09:17:09.857Z,28
2017-04-13T09:18:17.939Z,36
2017-04-13T09:19:26.740Z,36
2017-04-13T09:20:34.111Z,28
2017-04-13T09:21:42.309Z,44
2017-04-13T09:22:50.450Z,32
2017-04-13T09:23:58.411Z,32
2017-04-13T09:25:06.464Z,28
2017-04-13T09:26:14.951Z,28
2017-04-13T09:27:22.649Z,32
2017-04-13T09:28:30.724Z,28
2017-04-13T09:29:39.402Z,28
2017-04-13T09:30:47.019Z,36
2017-04-13T09:31:55.041Z,36
2017-04-13T09:33:03.171Z,36
2017-04-13T09:34:11.258Z,32
2017-04-13T09:35:19.846Z,32
2017-04-13T09:36:27.979Z,32
2017-04-13T09:37:35.466Z,32
2017-04-13T09:38:43.810Z,32
2017-04-13T09:39:51.585Z,36
2017-04-13T09:40:59.667Z,40
2017-04-13T09:42:07.951Z,44
2017-04-13T09:43:15.840Z,40
2017-04-13T09:44:23.971Z,40
2017-04-13T09:45:32.153Z,36
2017-04-13T09:46:40.104Z,32
2017-04-13T09:47:48.183Z,36
2017-04-13T09:48:56.280Z,32
2017-04-13T09:50:04.353Z,28
2017-04-13T09:51:12.443Z,28
2017-04-13T09:52:20.535Z,28
2017-04-13T09:53:28.615Z,28
2017-04-13T09:54:36.707Z,32
2017-04-13T09:55:44.783Z,52
2017-04-13T09:56:52.867Z,44
2017-04-13T09:58:00.962Z,52
2017-04-13T09:59:09.047Z,48
2017-04-13T10:00:17.133Z,44
2017-04-13T10:01:25.213Z,44
2017-04-13T10:02:33.305Z,44
2017-04-13T10:03:41.429Z,48
2017-04-13T10:04:49.486Z,56
2017-04-13T10:05:57.572Z,64
2017-04-13T10:07:05.663Z,56
2017-04-13T10:08:13.740Z,36
2017-04-13T10:09:21.958Z,36
2017-04-13T10:10:29.917Z,40
2017-04-13T10:11:38.001Z,36
2017-04-13T10:12:46.083Z,36
2017-04-13T10:13:54.171Z,36
2017-04-13T10:15:02.253Z,36
2017-04-13T10:16:10.344Z,40
2017-04-13T10:17:18.433Z,44
2017-04-13T10:18:26.523Z,40
2017-04-13T10:19:34.602Z,40
2017-04-13T10:20:43.315Z,40
2017-04-13T10:21:50.781Z,36
2017-04-13T10:22:58.867Z,32
2017-04-13T10:24:06.949Z,36
2017-04-13T10:25:15.035Z,36
2017-04-13T10:26:23.131Z,40
2017-04-13T10:27:31.220Z,40
2017-04-13T10:28:39.303Z,40
2017-04-13T10:29:47.390Z,44
2017-04-13T10:30:55.486Z,40
2017-04-13T10:32:03.566Z,40
2017-04-13T10:33:11.658Z,36
2017-04-13T10:34:19.772Z,36
2017-04-13T10:35:27.836Z,32
2017-04-13T10:36:35.916Z,40
2017-04-13T10:37:44.010Z,40
2017-04-13T10:38:52.099Z,44
2017-04-13T10:40:00.185Z,40
2017-04-13T10:41:08.268Z,44
2017-04-13T10:42:16.355Z,48
2017-04-13T10:43:24.445Z,48
2017-04-13T10:44:32.535Z,48
2017-04-13T10:45:40.622Z,44
2017-04-13T10:46:48.742Z,44
2017-04-13T10:47:56.798Z,56
2017-04-13T10:49:04.894Z,44
2017-04-13T10:50:12.978Z,44
2017-04-13T10:51:21.063Z,44
2017-04-13T10:52:29.145Z,44
2017-04-13T10:53:37.237Z,44
2017-04-13T10:54:45.326Z,48
2017-04-13T10:55:53.405Z,44
2017-04-13T10:57:01.495Z,44
2017-04-13T10:58:09.585Z,40
2017-04-13T10:59:17.661Z,36
2017-04-13T11:00:25.749Z,36
2017-04-13T11:01:33.842Z,32
2017-04-13T11:02:41.923Z,32
2017-04-13T11:03:50.080Z,36
2017-04-13T11:04:58.096Z,32
2017-04-13T11:06:06.188Z,32
2017-04-13T11:07:14.261Z,36
2017-04-13T11:08:22.346Z,36
2017-04-13T11:09:31.139Z,36
2017-04-13T11:10:38.519Z,44
2017-04-13T11:11:46.601Z,40
2017-04-13T11:12:54.694Z,44
2017-04-13T11:14:02.786Z,40
2017-04-13T11:15:10.868Z,36
2017-04-13T11:16:18.951Z,40
2017-04-13T11:17:27.040Z,44
2017-04-13T11:18:35.134Z,40
2017-04-13T11:19:43.216Z,40
2017-04-13T11:20:51.312Z,44
2017-04-13T11:21:59.389Z,44
2017-04-13T11:23:07.472Z,68
2017-04-13T11:24:15.615Z,44
2017-04-13T11:25:23.646Z,68
2017-04-13T11:26:31.738Z,68
2017-04-13T11:27:39.820Z,56
2017-04-13T11:28:47.913Z,36
2017-04-13T11:29:56.007Z,36
2017-04-13T11:31:04.091Z,64
2017-04-13T11:32:12.177Z,48
2017-04-13T11:33:20.266Z,40
2017-04-13T11:34:28.352Z,40
2017-04-13T11:35:36.433Z,36
2017-04-13T11:36:44.524Z,36
2017-04-13T11:37:52.614Z,40
2017-04-13T11:39:00.702Z,40
2017-04-13T11:40:08.789Z,52
2017-04-13T11:41:16.874Z,64
2017-04-13T11:42:24.964Z,64
2017-04-13T11:43:33.045Z,56
2017-04-13T11:44:41.132Z,64
2017-04-13T11:45:49.230Z,40
2017-04-13T11:46:57.300Z,40
2017-04-13T11:48:05.390Z,36
2017-04-13T11:49:13.479Z,48
2017-04-13T11:50:21.561Z,36
2017-04-13T11:51:29.648Z,36
2017-04-13T11:52:37.735Z,36
2017-04-13T11:53:45.827Z,40
2017-04-13T11:54:53.907Z,40
2017-04-13T11:56:01.995Z,60
2017-04-13T11:57:10.082Z,36
2017-04-13T11:58:18.170Z,56
2017-04-13T11:59:26.254Z,28
2017-04-13T12:00:34.351Z,28
2017-04-13T12:01:42.447Z,48
2017-04-13T12:02:50.858Z,32
2017-04-13T12:03:58.613Z,36
2017-04-13T12:05:06.700Z,60
2017-04-13T12:06:14.786Z,52
2017-04-13T12:07:22.871Z,56
2017-04-13T12:08:30.963Z,44
2017-04-13T12:09:39.056Z,52
2017-04-13T12:10:47.141Z,60
2017-04-13T12:11:55.236Z,52
2017-04-13T12:13:03.390Z,60
2017-04-13T12:14:11.414Z,40
2017-04-13T12:15:19.503Z,40
2017-04-13T12:16:27.587Z,44
2017-04-13T12:17:35.673Z,40
2017-04-13T12:18:43.757Z,40
2017-04-13T12:19:51.846Z,36
2017-04-13T12:20:59.935Z,36
2017-04-13T12:22:08.016Z,36
2017-04-13T12:23:16.101Z,40
2017-04-13T12:24:24.191Z,60
2017-04-13T12:25:32.277Z,60
2017-04-13T12:26:40.362Z,60
2017-04-13T12:27:48.445Z,52
2017-04-13T12:28:58.035Z,36
2017-04-13T12:30:04.741Z,36
2017-04-13T12:31:12.700Z,36
2017-04-13T12:32:21.035Z,40
2017-04-13T12:33:29.113Z,40
2017-04-13T12:34:37.184Z,44
2017-04-13T12:35:45.053Z,36
2017-04-13T12:36:53.134Z,40
2017-04-13T12:38:01.222Z,56
2017-04-13T12:39:09.305Z,60
2017-04-13T12:40:17.402Z,36
2017-04-13T12:41:25.484Z,36
2017-04-13T12:42:33.567Z,36
2017-04-13T12:43:41.660Z,36
2017-04-13T12:44:50.253Z,36
2017-04-13T12:45:57.834Z,36
2017-04-13T12:47:05.939Z,36
2017-04-13T12:48:14.023Z,56
2017-04-13T12:49:22.097Z,56
2017-04-13T12:50:30.180Z,56
2017-04-13T12:51:38.268Z,40
2017-04-13T12:52:46.353Z,52
2017-04-13T12:53:54.438Z,48
2017-04-13T12:55:02.529Z,40
2017-04-13T12:56:10.615Z,36
2017-04-13T12:57:18.699Z,36
2017-04-13T12:58:26.783Z,56
2017-04-13T12:59:34.873Z,52
2017-04-13T13:00:42.967Z,56
2017-04-13T13:01:51.054Z,52
2017-04-13T13:02:59.136Z,56
2017-04-13T13:04:07.223Z,56
2017-04-13T13:05:15.316Z,56
2017-04-13T13:06:23.401Z,44
2017-04-13T13:07:31.489Z,36
2017-04-13T13:08:39.620Z,44
2017-04-13T13:09:47.662Z,52
2017-04-13T13:10:55.752Z,52
2017-04-13T13:12:03.843Z,40
2017-04-13T13:13:11.936Z,40
2017-04-13T13:14:20.017Z,52
2017-04-13T13:15:28.103Z,52
2017-04-13T13:16:36.197Z,52
2017-04-13T13:17:44.275Z,52
2017-04-13T13:18:52.363Z,52
2017-04-13T13:20:00.447Z,52
2017-04-13T13:21:08.529Z,48
2017-04-13T13:22:16.621Z,52
2017-04-13T13:23:24.709Z,52
2017-04-13T13:24:32.799Z,52
2017-04-13T13:25:40.879Z,48
2017-04-13T13:26:48.969Z,48
2017-04-13T13:27:57.051Z,48
2017-04-13T13:29:05.138Z,48
2017-04-13T13:30:13.226Z,44
2017-04-13T13:31:21.377Z,44
2017-04-13T13:32:29.434Z,44.00
2017-04-13T13:33:37.585Z,44
2017-04-13T13:34:45.569Z,44
2017-04-13T13:35:53.654Z,40
2017-04-13T13:37:01.743Z,32
2017-04-13T13:38:09.921Z,28
2017-04-13T13:39:18.506Z,44
2017-04-13T13:40:25.997Z,44
2017-04-13T13:41:34.524Z,44
2017-04-13T13:42:42.174Z,44
2017-04-13T13:43:50.446Z,40
2017-04-13T13:44:58.501Z,40
2017-04-13T13:46:06.441Z,40
2017-04-13T13:47:14.523Z,36
2017-04-13T13:48:22.919Z,40
2017-04-13T13:49:31.271Z,40
2017-04-13T13:50:39.359Z,40
2017-04-13T13:51:46.870Z,40
2017-04-13T13:52:54.949Z,44
2017-04-13T13:54:03.035Z,40
2017-04-13T13:55:11.120Z,40
2017-04-13T13:56:19.214Z,40
2017-04-13T13:57:27.298Z,40
2017-04-13T13:58:35.414Z,40
2017-04-13T13:59:43.745Z,36
2017-04-13T14:00:51.813Z,40
2017-04-13T14:01:59.656Z,36
2017-04-13T14:03:07.743Z,36
2017-04-13T14:04:15.972Z,36
2017-04-13T14:05:24.513Z,36
2017-04-13T14:06:32.469Z,20
2017-04-13T14:07:40.283Z,36
2017-04-13T14:08:48.584Z,36
2017-04-13T14:09:56.259Z,36
2017-04-13T14:11:04.345Z,32
2017-04-13T14:12:12.446Z,32
2017-04-13T14:13:20.519Z,36
2017-04-13T14:14:28.605Z,32
2017-04-13T14:15:36.693Z,32
2017-04-13T14:16:44.791Z,36
2017-04-13T14:17:52.865Z,20
2017-04-13T14:19:00.956Z,16
2017-04-13T14:20:09.119Z,32
2017-04-13T14:21:17.306Z,36
2017-04-13T14:22:25.564Z,36
2017-04-13T14:23:33.797Z,36
2017-04-13T14:24:41.596Z,36
2017-04-13T14:25:49.737Z,32
2017-04-13T14:26:58.009Z,32
2017-04-13T14:28:05.805Z,24
2017-04-13T14:29:13.942Z,32
2017-04-13T14:30:21.820Z,40
2017-04-13T14:31:30.329Z,36
2017-04-13T14:32:37.982Z,36
2017-04-13T14:33:46.388Z,40
2017-04-13T14:34:54.185Z,36
2017-04-13T14:36:02.581Z,28
2017-04-13T14:37:10.337Z,36
2017-04-13T14:38:18.425Z,36
2017-04-13T14:39:26.651Z,36
2017-04-13T14:40:35.043Z,36
2017-04-13T14:41:42.710Z,32
2017-04-13T14:42:50.781Z,36
2017-04-13T14:43:58.866Z,28
2017-04-13T14:45:07.105Z,24
2017-04-13T14:46:15.544Z,36
2017-04-13T14:47:23.136Z,36
2017-04-13T14:48:31.219Z,36
2017-04-13T14:49:39.958Z,36
2017-04-13T14:50:47.400Z,36
2017-04-13T14:51:55.483Z,36
2017-04-13T14:53:04.221Z,40
2017-04-13T14:54:11.656Z,36
2017-04-13T14:55:19.737Z,36
2017-04-13T14:56:27.829Z,36
2017-04-13T14:57:35.919Z,36
2017-04-13T14:58:44.011Z,36
2017-04-13T14:59:52.097Z,36
2017-04-13T15:01:00.187Z,36
2017-04-13T15:02:08.271Z,32
2017-04-13T15:03:16.360Z,32
2017-04-13T15:04:24.447Z,32
2017-04-13T15:05:32.528Z,32
2017-04-13T15:06:40.613Z,32
2017-04-13T15:07:48.697Z,32
2017-04-13T15:08:56.820Z,36
2017-04-13T15:10:04.874Z,32
2017-04-13T15:11:12.959Z,32
2017-04-13T15:12:21.043Z,32
2017-04-13T15:13:29.135Z,32
2017-04-13T15:14:37.220Z,36
2017-04-13T15:15:45.311Z,32
2017-04-13T15:16:53.395Z,28
2017-04-13T15:18:01.484Z,28
2017-04-13T15:19:09.574Z,28
2017-04-13T15:20:17.659Z,28
2017-04-13T15:21:25.751Z,28
2017-04-13T15:22:33.835Z,28
2017-04-13T15:23:41.916Z,28
2017-04-13T15:24:50.004Z,28
2017-04-13T15:25:58.088Z,32
2017-04-13T15:27:06.176Z,20
2017-04-13T15:28:14.261Z,28
2017-04-13T15:29:22.349Z,32
2017-04-13T15:30:30.435Z,32
2017-04-13T15:31:38.517Z,32
2017-04-13T15:32:46.607Z,28
2017-04-13T15:33:54.694Z,32
2017-04-13T15:35:02.775Z,32
2017-04-13T15:36:10.862Z,32
2017-04-13T15:37:18.954Z,28
2017-04-13T15:38:27.040Z,28
2017-04-13T15:39:35.128Z,28
2017-04-13T15:40:43.216Z,32
2017-04-13T15:41:51.306Z,28
2017-04-13T15:42:59.390Z,28
2017-04-13T15:44:07.474Z,28
2017-04-13T15:45:15.562Z,28
2017-04-13T15:46:23.641Z,32
2017-04-13T15:47:31.728Z,28
2017-04-13T15:48:39.866Z,28
2017-04-13T15:49:47.905Z,28
2017-04-13T15:50:55.988Z,28
2017-04-13T15:52:04.070Z,28
2017-04-13T15:53:12.160Z,28
2017-04-13T15:54:20.245Z,28
2017-04-13T15:55:28.328Z,28
2017-04-13T15:56:36.427Z,24
2017-04-13T15:57:44.507Z,28
2017-04-13T15:58:52.587Z,28
2017-04-13T16:00:00.828Z,28
2017-04-13T16:01:08.763Z,28
2017-04-13T16:02:16.848Z,28
2017-04-13T16:03:24.932Z,24
2017-04-13T16:04:33.021Z,28
2017-04-13T16:05:41.105Z,28
2017-04-13T16:06:49.182Z,28
2017-04-13T16:07:57.272Z,28
2017-04-13T16:09:05.362Z,24
2017-04-13T16:10:13.446Z,24
2017-04-13T16:11:21.533Z,24
2017-04-13T16:12:29.622Z,24
2017-04-13T16:13:37.711Z,24
2017-04-13T16:14:45.794Z,24
2017-04-13T16:15:53.879Z,24
2017-04-13T16:17:01.966Z,24
2017-04-13T16:18:10.055Z,24
2017-04-13T16:19:18.135Z,28
2017-04-13T16:20:26.228Z,24
2017-04-13T16:21:34.310Z,24
2017-04-13T16:22:42.394Z,24